04:32
Airports
History
Links
Donate
Help keep this website running!
PayPal
Bitcoin
This page is community maintained. The information is intended for PC simulator navigation or reference.
Always use approved charts for navigation.
EDAS
Finsterwalde
Finsterwalde (EDAS)
Finsterwalde, Brandenburg, Germany (3238)
4
Lat/Lng:51° 38' 7.2" N / 13° 40' 25.2" E
51.635334 / 13.673668
Elevation:384'ft / 117mMSL
ID / ICAO:EDAS
Runways:1
Longest:09-27
Grass 853m / 2,799ft
Nearby Weather04:20 GMT 2017-09-22
Nearby weather at ETSH, Holzdorf located 23.5 nautical miles from EDAS
Altimeter: 30.12
Visibility: 6.2 statute miles
Wind: 0 knots (from 000°)
Temp: 10°c / 50°f
Humidity: 100.0%

METAR: ETSH 220420Z 00000KT 9999 BKN038 10/10 Q1020 BLU BLU

(Powered by phpweather)
Nearby VORs <50NM
Nearby NDBs
Runway 09 / 27
Dimensions:853 x 29.9m 2799' x 98'ft
Surface:Grass
Runway 09 [A]Runway 27 [B]
Heading:090°TH 270°TH
Lat:
Lng:
51° 38' 7.2"N
13° 40' 3.03"E
51° 38' 7.2"N
13° 40' 47.38"E
User Notes and Comments
51° 38' 7.2" N / 13° 40' 25.2" E
Distance To
Airport ID:
Nearby Airports
(U) FINSTERWALDE SCHACKSDORF 3.4 NM
EDUS SE 125°
4 Bronkow 12.4 NM
EDBQ E 80°
4 Schwarzheide Schipkau 13.3 NM
EDBZ SE 138°
(U) FALKENBERG LONNEWITZ 20.0 NM
EDUF WSW 252°
(U) SPREMBERG WELZOW 20.4 NM
EDCY E 101°
(U) GROSSENHAIN 23.2 NM
EDAK SSW 192°
(C) Holzdorf 23.5 NM
ETSH ( WX ) WNW 292°
VFR Chart
Flight Planning at SkyVector.com